createdAt,value
2023-02-09T00:01:41.309Z,10.43
2023-02-09T00:04:15.655Z,9.03
2023-02-09T00:06:48.791Z,3.33
2023-02-09T00:09:22.328Z,6.83
2023-02-09T00:12:13.165Z,9.58
2023-02-09T00:14:46.557Z,7.90
2023-02-09T00:17:19.910Z,7.33
2023-02-09T00:19:54.908Z,9.15
2023-02-09T00:22:28.332Z,7.35
2023-02-09T00:25:01.833Z,8.05
2023-02-09T00:27:36.359Z,8.35
2023-02-09T00:30:12.113Z,6.55
2023-02-09T00:32:45.526Z,10.10
2023-02-09T00:35:20.621Z,6.37
2023-02-09T00:37:54.029Z,8.20
2023-02-09T00:40:27.583Z,7.05
2023-02-09T00:43:01.333Z,8.58
2023-02-09T00:45:35.250Z,8.50
2023-02-09T00:48:09.591Z,9.95
2023-02-09T00:50:43.111Z,9.65
2023-02-09T00:53:16.722Z,8.78
2023-02-09T00:55:50.664Z,11.73
2023-02-09T00:58:24.069Z,8.83
2023-02-09T01:00:57.199Z,10.80
2023-02-09T01:03:30.658Z,7.47
2023-02-09T01:06:04.264Z,8.50
2023-02-09T01:08:38.406Z,8.73
2023-02-09T01:11:13.603Z,8.73
2023-02-09T01:13:47.848Z,9.90
2023-02-09T01:16:21.797Z,7.75
2023-02-09T01:18:55.204Z,7.35
2023-02-09T01:21:29.364Z,10.35
2023-02-09T01:24:02.577Z,9.18
2023-02-09T01:26:36.297Z,9.13
2023-02-09T01:29:09.684Z,8.90
2023-02-09T01:31:43.650Z,8.15
2023-02-09T01:34:19.208Z,8.73
2023-02-09T01:36:54.449Z,10.55
2023-02-09T01:39:29.394Z,10.13
2023-02-09T01:42:03.731Z,10.05
2023-02-09T01:45:25.325Z,9.18
2023-02-09T01:48:01.832Z,8.85
2023-02-09T01:50:38.599Z,9.35
2023-02-09T01:53:11.920Z,9.43
2023-02-09T01:55:48.126Z,10.28
2023-02-09T01:58:23.793Z,10.48
2023-02-09T02:00:59.665Z,12.55
2023-02-09T02:03:33.392Z,10.35
2023-02-09T02:06:10.449Z,8.65
2023-02-09T02:08:46.176Z,11.53
2023-02-09T02:11:21.197Z,6.33
2023-02-09T02:13:54.419Z,8.48
2023-02-09T02:16:43.284Z,9.48
2023-02-09T02:22:59.347Z,12.23
2023-02-09T02:26:11.590Z,8.95
2023-02-09T02:28:56.164Z,10.40
2023-02-09T02:32:18.368Z,10.13
2023-02-09T02:34:54.596Z,13.70
2023-02-09T02:37:50.682Z,13.28
2023-02-09T02:40:32.298Z,11.08
2023-02-09T02:43:10.240Z,11.03
2023-02-09T02:45:47.316Z,10.50
2023-02-09T02:48:26.830Z,11.12
2023-02-09T02:51:03.446Z,12.28
2023-02-09T02:53:39.051Z,9.58
2023-02-09T02:56:16.250Z,12.40
2023-02-09T02:58:52.711Z,8.48
2023-02-09T03:01:29.359Z,11.20
2023-02-09T03:04:05.232Z,10.93
2023-02-09T03:06:40.168Z,11.30
2023-02-09T03:09:13.945Z,9.83
2023-02-09T03:11:50.103Z,9.65
2023-02-09T03:14:43.435Z,9.38
2023-02-09T03:17:22.748Z,9.78
2023-02-09T03:19:59.269Z,9.88
2023-02-09T03:22:35.976Z,11.20
2023-02-09T03:25:12.934Z,10.95
2023-02-09T03:27:50.283Z,9.67
2023-02-09T03:30:25.755Z,7.87
2023-02-09T03:32:59.377Z,9.70
2023-02-09T03:35:38.232Z,9.48
2023-02-09T03:38:11.671Z,9.25
2023-02-09T03:40:45.749Z,10.80
2023-02-09T03:43:19.436Z,11.57
2023-02-09T03:45:52.908Z,12.23
2023-02-09T03:48:26.370Z,12.53
2023-02-09T03:51:01.174Z,11.93
2023-02-09T03:53:36.579Z,10.30
2023-02-09T03:56:10.512Z,11.45
2023-02-09T03:58:44.000Z,11.78
2023-02-09T04:01:17.493Z,12.63
2023-02-09T04:03:51.351Z,12.88
2023-02-09T04:06:24.503Z,13.28
2023-02-09T04:08:58.088Z,15.23
2023-02-09T04:11:32.109Z,11.28
2023-02-09T04:14:06.457Z,11.85
2023-02-09T04:16:40.097Z,14.03
2023-02-09T04:19:13.762Z,11.48
2023-02-09T04:21:47.103Z,11.85
2023-02-09T04:24:21.964Z,11.65
2023-02-09T04:26:55.544Z,15.83
2023-02-09T04:29:29.480Z,12.80
2023-02-09T04:32:02.877Z,14.13
2023-02-09T04:34:36.278Z,13.58
2023-02-09T04:37:09.655Z,12.58
2023-02-09T04:39:43.043Z,19.65
2023-02-09T04:42:16.607Z,16.55
2023-02-09T04:44:50.097Z,12.07
2023-02-09T04:47:23.392Z,21.73
2023-02-09T04:49:56.814Z,16.87
2023-02-09T04:52:30.361Z,13.90
2023-02-09T04:55:03.696Z,15.40
2023-02-09T04:57:53.731Z,16.75
2023-02-09T05:00:27.386Z,16.42
2023-02-09T05:03:00.827Z,20.02
2023-02-09T05:05:34.124Z,16.27
2023-02-09T05:08:08.126Z,16.17
2023-02-09T05:10:41.985Z,14.70
2023-02-09T05:13:15.363Z,20.70
2023-02-09T05:15:48.784Z,17.50
2023-02-09T05:18:22.875Z,17.87
2023-02-09T05:20:56.183Z,15.05
2023-02-09T05:23:29.555Z,15.00
2023-02-09T05:26:03.357Z,11.95
2023-02-09T05:28:36.867Z,13.30
2023-02-09T05:31:10.390Z,13.75
2023-02-09T05:33:43.805Z,14.43
2023-02-09T05:36:17.181Z,14.50
2023-02-09T05:38:50.866Z,11.75
2023-02-09T05:41:42.022Z,11.60
2023-02-09T05:44:15.683Z,14.45
2023-02-09T05:46:49.138Z,12.50
2023-02-09T05:49:22.763Z,12.37
2023-02-09T05:51:56.297Z,12.35
2023-02-09T05:54:30.068Z,12.63
2023-02-09T05:57:04.262Z,10.08
2023-02-09T05:59:37.731Z,11.00
2023-02-09T06:02:12.114Z,9.98
2023-02-09T06:04:45.690Z,9.75
2023-02-09T06:07:18.801Z,9.15
2023-02-09T06:09:52.301Z,8.20
2023-02-09T06:12:25.851Z,10.28
2023-02-09T06:14:59.255Z,8.43
2023-02-09T06:17:34.442Z,7.60
2023-02-09T06:20:09.594Z,7.60
2023-02-09T06:22:42.972Z,7.70
2023-02-09T06:25:16.661Z,15.53
2023-02-09T06:27:50.150Z,20.10
2023-02-09T06:30:24.075Z,19.67
2023-02-09T06:32:57.517Z,22.98
2023-02-09T06:35:30.962Z,20.32
2023-02-09T06:38:04.513Z,26.17
2023-02-09T06:40:38.095Z,24.85
2023-02-09T06:43:11.850Z,22.30
2023-02-09T06:45:45.732Z,23.60
2023-02-09T06:48:19.309Z,21.42
2023-02-09T06:50:52.903Z,15.38
2023-02-09T06:53:26.634Z,15.25
2023-02-09T06:56:03.536Z,13.38
2023-02-09T06:58:37.598Z,13.20
2023-02-09T07:01:15.112Z,14.55
2023-02-09T07:03:48.756Z,16.82
2023-02-09T07:06:23.360Z,14.50
2023-02-09T07:08:57.256Z,17.20
2023-02-09T07:11:31.438Z,17.15
2023-02-09T07:14:04.587Z,17.87
2023-02-09T07:16:38.015Z,19.82
2023-02-09T07:19:11.484Z,17.25
2023-02-09T07:21:45.052Z,16.82
2023-02-09T07:24:18.616Z,15.72
2023-02-09T07:26:54.818Z,13.40
2023-02-09T07:29:28.383Z,15.18
2023-02-09T07:32:04.640Z,17.12
2023-02-09T07:34:38.525Z,14.87
2023-02-09T07:37:13.159Z,12.43
2023-02-09T07:39:46.865Z,16.12
2023-02-09T07:42:23.071Z,17.85
2023-02-09T07:44:59.515Z,15.93
2023-02-09T07:47:35.585Z,14.70
2023-02-09T07:50:10.401Z,17.02
2023-02-09T07:52:43.843Z,17.17
2023-02-09T07:55:17.364Z,15.68
2023-02-09T07:57:50.802Z,15.95
2023-02-09T08:00:25.658Z,17.40
2023-02-09T08:03:00.419Z,11.18
2023-02-09T08:05:37.140Z,12.25
2023-02-09T08:08:10.217Z,16.80
2023-02-09T08:10:44.490Z,14.28
2023-02-09T08:13:18.356Z,14.53
2023-02-09T08:15:54.757Z,15.90
2023-02-09T08:21:14.051Z,16.20
2023-02-09T08:23:50.467Z,17.05
2023-02-09T08:26:24.336Z,13.13
2023-02-09T08:28:58.906Z,15.08
2023-02-09T08:31:32.744Z,13.80
2023-02-09T08:34:06.804Z,17.90
2023-02-09T08:36:41.537Z,16.65
2023-02-09T08:39:15.302Z,20.60
2023-02-09T08:41:49.012Z,17.57
2023-02-09T08:44:22.986Z,18.35
2023-02-09T08:46:56.707Z,19.07
2023-02-09T08:49:30.461Z,19.27
2023-02-09T08:52:03.931Z,20.12
2023-02-09T08:54:37.764Z,18.27
2023-02-09T08:57:11.151Z,20.30
2023-02-09T08:59:44.767Z,17.57
2023-02-09T09:02:18.421Z,15.05
2023-02-09T09:04:52.010Z,18.05
2023-02-09T09:07:25.850Z,16.52
2023-02-09T09:09:59.413Z,20.57
2023-02-09T09:12:34.666Z,20.57
2023-02-09T09:15:08.869Z,19.70
2023-02-09T09:17:42.467Z,19.92
2023-02-09T09:20:16.524Z,24.57
2023-02-09T09:22:50.152Z,21.70
2023-02-09T09:25:23.341Z,17.73
2023-02-09T09:27:56.856Z,16.02
2023-02-09T09:30:30.376Z,18.73
2023-02-09T09:33:03.994Z,20.25
2023-02-09T09:35:37.616Z,17.87
2023-02-09T09:38:11.194Z,17.40
2023-02-09T09:40:47.044Z,20.35
2023-02-09T09:43:24.548Z,20.88
2023-02-09T09:45:58.678Z,16.17
2023-02-09T09:48:35.597Z,18.65
2023-02-09T09:51:12.890Z,23.77
2023-02-09T09:53:48.759Z,24.90
2023-02-09T09:56:26.132Z,21.05
2023-02-09T09:59:00.678Z,20.95
2023-02-09T10:01:35.308Z,21.85
2023-02-09T10:04:15.150Z,16.37
2023-02-09T10:06:51.125Z,22.40
2023-02-09T10:09:32.834Z,18.02
2023-02-09T10:12:18.064Z,15.93
2023-02-09T10:14:51.662Z,17.80
2023-02-09T10:17:24.724Z,20.25
2023-02-09T10:20:05.994Z,20.02
2023-02-09T10:22:39.535Z,16.70
2023-02-09T10:25:39.616Z,12.50
2023-02-09T10:28:23.177Z,16.17
2023-02-09T10:30:58.468Z,13.48
2023-02-09T10:33:34.598Z,16.27
2023-02-09T10:36:11.702Z,15.98
2023-02-09T10:38:45.512Z,14.33
2023-02-09T10:41:19.348Z,17.37
2023-02-09T10:43:55.273Z,13.13
2023-02-09T10:46:29.127Z,12.07
2023-02-09T10:49:03.530Z,11.43
2023-02-09T10:51:37.865Z,12.05
2023-02-09T10:54:14.231Z,10.98
2023-02-09T10:56:50.257Z,13.43
2023-02-09T10:59:26.346Z,10.30
2023-02-09T11:02:01.913Z,16.02
2023-02-09T11:04:40.250Z,10.25
2023-02-09T11:07:16.481Z,13.48
2023-02-09T11:09:52.683Z,13.15
2023-02-09T11:12:29.006Z,10.15
2023-02-09T11:15:02.846Z,11.12
2023-02-09T11:17:38.208Z,11.22
2023-02-09T11:20:26.938Z,13.65
2023-02-09T11:23:10.486Z,12.07
2023-02-09T11:25:48.524Z,16.27
2023-02-09T11:32:15.051Z,18.45
2023-02-09T11:37:57.714Z,11.88
2023-02-09T11:40:35.410Z,13.55
2023-02-09T11:43:18.739Z,9.68
2023-02-09T11:45:53.412Z,10.85
2023-02-09T11:48:29.752Z,12.60
2023-02-09T11:51:09.128Z,13.65
2023-02-09T11:53:46.216Z,14.83
2023-02-09T11:56:21.582Z,10.45
2023-02-09T11:58:59.300Z,17.02
2023-02-09T12:04:13.172Z,16.07
2023-02-09T12:06:49.871Z,17.95
2023-02-09T12:12:35.520Z,10.03
2023-02-09T12:15:18.377Z,10.48
2023-02-09T12:17:54.798Z,14.25
2023-02-09T12:20:32.227Z,14.30
2023-02-09T12:23:08.521Z,11.60
2023-02-09T12:26:15.393Z,11.38
2023-02-09T12:28:50.100Z,8.68
2023-02-09T12:31:27.441Z,12.05
2023-02-09T12:34:17.212Z,14.45
2023-02-09T12:37:28.636Z,7.60
2023-02-09T12:40:26.439Z,7.80
2023-02-09T12:46:20.578Z,7.03
2023-02-09T12:49:14.669Z,8.33
2023-02-09T12:55:15.137Z,4.80
2023-02-09T12:57:52.983Z,8.43
2023-02-09T13:03:43.815Z,6.15
2023-02-09T13:06:25.455Z,5.67
2023-02-09T13:09:01.768Z,9.25
2023-02-09T13:11:41.111Z,6.40
2023-02-09T13:14:16.407Z,5.78
2023-02-09T13:21:00.900Z,8.88
2023-02-09T13:23:39.862Z,8.38
2023-02-09T13:26:23.067Z,8.88
2023-02-09T13:29:19.646Z,5.22
2023-02-09T13:31:50.241Z,10.08
2023-02-09T13:37:04.140Z,7.08
2023-02-09T13:39:40.881Z,5.58
2023-02-09T13:42:23.404Z,7.33
2023-02-09T13:44:58.912Z,8.55
2023-02-09T13:47:34.106Z,9.00
2023-02-09T13:50:14.049Z,8.08
2023-02-09T13:52:47.761Z,9.83
2023-02-09T13:55:22.904Z,5.17
2023-02-09T13:57:59.586Z,7.10
2023-02-09T14:00:37.925Z,6.22
2023-02-09T14:03:16.377Z,11.65
2023-02-09T14:05:53.258Z,7.35
2023-02-09T14:08:28.478Z,9.93
2023-02-09T14:11:05.009Z,7.50
2023-02-09T14:13:41.210Z,10.20
2023-02-09T14:16:17.911Z,6.80
2023-02-09T14:18:53.608Z,12.35
2023-02-09T14:21:32.255Z,10.03
2023-02-09T14:24:21.686Z,6.42
2023-02-09T14:27:03.327Z,9.30
2023-02-09T14:29:38.277Z,9.95
2023-02-09T14:32:33.093Z,8.35
2023-02-09T14:35:04.629Z,8.95
2023-02-09T14:37:39.923Z,9.53
2023-02-09T14:40:24.273Z,7.40
2023-02-09T14:43:03.125Z,8.68
2023-02-09T14:45:43.632Z,7.45
2023-02-09T14:51:14.241Z,5.95
2023-02-09T14:53:48.631Z,7.50
2023-02-09T14:56:26.534Z,7.00
2023-02-09T14:59:00.348Z,9.58
2023-02-09T15:01:33.913Z,4.50
2023-02-09T15:04:07.294Z,2.50
2023-02-09T15:06:43.728Z,5.78
2023-02-09T15:09:21.508Z,5.53
2023-02-09T15:12:08.633Z,14.83
2023-02-09T15:14:46.580Z,6.47
2023-02-09T15:17:21.982Z,9.05
2023-02-09T15:19:55.998Z,3.90
2023-02-09T15:22:29.618Z,6.45
2023-02-09T15:25:03.195Z,8.43
2023-02-09T15:27:40.097Z,2.85
2023-02-09T15:30:18.892Z,3.47
2023-02-09T15:32:52.904Z,7.37
2023-02-09T15:35:28.372Z,9.38
2023-02-09T15:38:03.344Z,9.00
2023-02-09T15:40:57.469Z,11.20
2023-02-09T15:43:48.675Z,7.85
2023-02-09T15:46:39.694Z,3.70
2023-02-09T15:49:13.479Z,5.00
2023-02-09T15:51:47.001Z,5.60
2023-02-09T15:54:27.341Z,4.87
2023-02-09T15:57:01.556Z,6.75
2023-02-09T15:59:35.192Z,4.70
2023-02-09T16:02:14.397Z,7.87
2023-02-09T16:04:49.354Z,8.20
2023-02-09T16:07:26.992Z,8.03
2023-02-09T16:10:00.615Z,6.12
2023-02-09T16:12:36.844Z,6.50
2023-02-09T16:15:17.886Z,7.10
2023-02-09T16:17:51.869Z,10.80
2023-02-09T16:20:26.289Z,6.80
2023-02-09T16:23:11.735Z,5.45
2023-02-09T16:25:37.066Z,12.15
2023-02-09T16:28:13.718Z,4.30
2023-02-09T16:30:53.538Z,4.25
2023-02-09T16:33:27.966Z,5.53
2023-02-09T16:36:05.313Z,10.30
2023-02-09T16:38:38.915Z,6.15
2023-02-09T16:41:17.141Z,10.78
2023-02-09T16:43:51.568Z,5.92
2023-02-09T16:46:25.252Z,5.05
2023-02-09T16:48:59.166Z,5.20
2023-02-09T16:51:32.755Z,11.18
2023-02-09T16:54:07.799Z,6.28
2023-02-09T16:56:53.607Z,5.67
2023-02-09T16:59:16.526Z,4.60
2023-02-09T17:01:50.115Z,7.53
2023-02-09T17:04:23.514Z,6.90
2023-02-09T17:06:57.109Z,4.58
2023-02-09T17:09:30.412Z,8.08
2023-02-09T17:12:03.744Z,5.08
2023-02-09T17:14:37.241Z,6.65
2023-02-09T17:17:13.796Z,5.42
2023-02-09T17:19:48.405Z,4.90
2023-02-09T17:22:22.426Z,6.40
2023-02-09T17:24:56.117Z,6.10
2023-02-09T17:27:33.794Z,5.37
2023-02-09T17:30:12.180Z,4.53
2023-02-09T17:35:48.779Z,3.98
2023-02-09T17:38:02.352Z,6.70
2023-02-09T17:40:38.017Z,8.38
2023-02-09T17:43:13.088Z,7.10
2023-02-09T17:45:49.743Z,7.78
2023-02-09T17:48:24.577Z,8.13
2023-02-09T17:51:00.358Z,6.33
2023-02-09T17:53:36.213Z,5.35
2023-02-09T17:56:10.194Z,7.05
2023-02-09T17:58:44.667Z,6.25
2023-02-09T18:01:27.291Z,6.37
2023-02-09T18:04:04.078Z,4.97
2023-02-09T18:06:40.213Z,8.58
2023-02-09T18:09:16.188Z,14.55
2023-02-09T18:12:02.517Z,7.75
2023-02-09T18:14:36.963Z,8.73
2023-02-09T18:17:10.902Z,10.10
2023-02-09T18:19:44.786Z,5.90
2023-02-09T18:22:20.181Z,10.20
2023-02-09T18:24:55.435Z,7.37
2023-02-09T18:27:29.458Z,5.95
2023-02-09T18:30:03.370Z,6.70
2023-02-09T18:32:36.947Z,7.95
2023-02-09T18:35:14.123Z,8.63
2023-02-09T18:37:48.254Z,8.13
2023-02-09T18:40:22.528Z,8.05
2023-02-09T18:43:08.716Z,5.62
2023-02-09T18:46:20.620Z,5.60
2023-02-09T18:48:57.164Z,5.12
2023-02-09T18:51:31.375Z,7.40
2023-02-09T18:54:09.408Z,5.00
2023-02-09T18:56:42.754Z,8.15
2023-02-09T18:59:17.860Z,10.15
2023-02-09T19:01:51.699Z,4.05
2023-02-09T19:04:25.659Z,6.05
2023-02-09T19:06:59.969Z,8.23
2023-02-09T19:09:33.794Z,8.88
2023-02-09T19:12:09.111Z,9.43
2023-02-09T19:14:45.174Z,8.15
2023-02-09T19:17:20.234Z,9.43
2023-02-09T19:19:53.934Z,9.35
2023-02-09T19:22:28.153Z,8.65
2023-02-09T19:25:05.177Z,6.30
2023-02-09T19:27:38.657Z,7.42
2023-02-09T19:30:32.930Z,4.92
2023-02-09T19:33:09.064Z,7.67
2023-02-09T19:35:44.221Z,6.35
2023-02-09T19:38:38.136Z,3.27
2023-02-09T19:41:13.679Z,4.03
2023-02-09T19:43:50.694Z,4.75
2023-02-09T19:46:35.027Z,3.75
2023-02-09T19:49:08.443Z,3.70
2023-02-09T19:51:41.963Z,2.85
2023-02-09T19:54:35.985Z,2.62
2023-02-09T19:57:09.873Z,4.80
2023-02-09T19:59:43.385Z,4.25
2023-02-09T20:02:18.177Z,4.25
2023-02-09T20:04:52.068Z,4.67
2023-02-09T20:07:25.877Z,2.52
2023-02-09T20:09:59.456Z,4.28
2023-02-09T20:12:34.522Z,2.95
2023-02-09T20:15:09.375Z,3.50
2023-02-09T20:18:15.978Z,5.30
2023-02-09T20:21:16.372Z,4.55
2023-02-09T20:23:50.293Z,3.72
2023-02-09T20:26:26.773Z,4.37
2023-02-09T20:29:01.070Z,7.65
2023-02-09T20:31:37.127Z,4.00
2023-02-09T20:34:13.217Z,4.90
2023-02-09T20:37:23.529Z,5.83
2023-02-09T20:40:09.572Z,2.87
2023-02-09T20:43:05.797Z,2.77
2023-02-09T20:46:15.130Z,4.87
2023-02-09T20:48:52.458Z,4.22
2023-02-09T20:51:26.653Z,3.05
2023-02-09T20:54:00.146Z,4.92
2023-02-09T20:56:36.804Z,4.08
2023-02-09T20:59:10.533Z,3.55
2023-02-09T21:01:45.216Z,3.83
2023-02-09T21:04:18.840Z,4.40
2023-02-09T21:06:52.473Z,5.75
2023-02-09T21:09:28.388Z,6.28
2023-02-09T21:12:01.930Z,4.03
2023-02-09T21:14:42.196Z,5.20
2023-02-09T21:17:11.518Z,6.92
2023-02-09T21:19:45.119Z,4.97
2023-02-09T21:22:18.797Z,6.75
2023-02-09T21:24:52.610Z,4.92
2023-02-09T21:27:26.355Z,5.10
2023-02-09T21:29:59.899Z,3.60
2023-02-09T21:32:35.919Z,4.03
2023-02-09T21:35:11.225Z,6.50
2023-02-09T21:37:44.799Z,5.65
2023-02-09T21:40:20.165Z,4.30
2023-02-09T21:42:53.962Z,6.53
2023-02-09T21:45:27.406Z,8.73
2023-02-09T21:48:02.438Z,4.53
2023-02-09T21:50:35.888Z,9.60
2023-02-09T21:53:09.414Z,5.60
2023-02-09T21:55:42.941Z,5.95
2023-02-09T21:58:16.355Z,6.30
2023-02-09T22:00:54.639Z,5.85
2023-02-09T22:03:26.632Z,7.75
2023-02-09T22:06:00.776Z,6.25
2023-02-09T22:08:34.241Z,6.53
2023-02-09T22:11:08.966Z,7.62
2023-02-09T22:13:42.480Z,9.98
2023-02-09T22:16:18.715Z,8.45
2023-02-09T22:18:52.334Z,9.95
2023-02-09T22:21:26.072Z,4.97
2023-02-09T22:23:59.759Z,8.63
2023-02-09T22:26:33.150Z,7.28
2023-02-09T22:29:06.623Z,7.05
2023-02-09T22:31:40.203Z,6.25
2023-02-09T22:34:13.603Z,4.53
2023-02-09T22:36:46.871Z,5.50
2023-02-09T22:39:20.021Z,5.67
2023-02-09T22:41:54.845Z,5.50
2023-02-09T22:44:30.144Z,5.40
2023-02-09T22:47:03.738Z,11.78
2023-02-09T22:49:37.051Z,5.97
2023-02-09T22:52:10.681Z,7.12
2023-02-09T22:54:44.095Z,6.95
2023-02-09T22:57:17.394Z,4.85
2023-02-09T22:59:50.840Z,7.15
2023-02-09T23:02:24.638Z,5.08
2023-02-09T23:04:58.060Z,7.03
2023-02-09T23:07:31.686Z,5.00
2023-02-09T23:10:05.422Z,5.15
2023-02-09T23:12:40.096Z,9.93
2023-02-09T23:15:13.882Z,6.33
2023-02-09T23:17:47.383Z,10.55
2023-02-09T23:20:21.578Z,5.92
2023-02-09T23:22:56.444Z,9.28
2023-02-09T23:25:30.376Z,6.47
2023-02-09T23:28:03.811Z,7.22
2023-02-09T23:30:37.925Z,7.58
2023-02-09T23:33:11.308Z,7.62
2023-02-09T23:35:45.065Z,8.43
2023-02-09T23:38:20.075Z,5.50
2023-02-09T23:40:53.468Z,5.85
2023-02-09T23:43:27.092Z,7.30
2023-02-09T23:46:02.418Z,6.53
2023-02-09T23:48:36.558Z,10.48
2023-02-09T23:51:13.689Z,5.55
2023-02-09T23:53:47.722Z,6.10
2023-02-09T23:56:21.765Z,9.25
2023-02-09T23:58:55.870Z,9.08
